Time;durP1;ratioP1;P1;durP2;ratioP2;P2;SDS_P1;SDS_P2;PMS_P1;PMS_P2;Temp;Humidity;BMP_temperature;BMP_pressure;BME280_temperature;BME280_humidity;BME280_pressure;Samples;Min_cycle;Max_cycle;Signal;HPM_P1;HPM_P2
2023/04/30 00:01:54;;;;;;;7.07;2.13;;;8.30;99.90;;;;;;5023295;28;20203;-79
2023/04/30 00:04:20;;;;;;;3.70;2.03;;;8.20;99.90;;;;;;5011412;28;20201;-77
2023/04/30 00:06:45;;;;;;;3.87;1.60;;;8.20;99.90;;;;;;5010466;28;20208;-77
2023/04/30 00:09:11;;;;;;;5.33;1.90;;;8.20;99.90;;;;;;5003788;28;20505;-80
2023/04/30 00:11:36;;;;;;;3.53;1.87;;;8.10;99.90;;;;;;5007367;28;20682;-76
2023/04/30 00:14:02;;;;;;;2.60;1.60;;;8.10;99.90;;;;;;5009451;28;20773;-77
2023/04/30 00:16:27;;;;;;;5.73;2.03;;;8.00;99.90;;;;;;5011768;28;20781;-80
2023/04/30 00:18:53;;;;;;;5.43;1.50;;;8.00;99.90;;;;;;5006150;28;20675;-77
2023/04/30 00:21:18;;;;;;;9.80;1.83;;;8.00;99.90;;;;;;5008779;28;20222;-76
2023/04/30 00:23:44;;;;;;;2.37;1.60;;;7.90;99.90;;;;;;5006021;28;20207;-79
2023/04/30 00:26:10;;;;;;;7.30;2.60;;;7.80;99.90;;;;;;4997769;28;20677;-76
2023/04/30 00:28:35;;;;;;;3.23;1.77;;;7.80;99.90;;;;;;5003963;28;20330;-77
2023/04/30 00:31:01;;;;;;;5.23;2.77;;;7.80;99.90;;;;;;5017162;28;20206;-78
2023/04/30 00:33:27;;;;;;;6.03;2.07;;;7.70;99.90;;;;;;4998439;28;20333;-77
2023/04/30 00:35:52;;;;;;;4.20;2.30;;;7.70;99.90;;;;;;5007598;28;20230;-72
2023/04/30 00:38:18;;;;;;;8.47;3.10;;;7.60;99.90;;;;;;5014454;28;20218;-80
2023/04/30 00:40:43;;;;;;;6.63;3.00;;;7.50;99.90;;;;;;5015871;28;20196;-76
2023/04/30 00:43:09;;;;;;;6.10;2.37;;;7.50;99.90;;;;;;5010884;28;20305;-78
2023/04/30 00:45:35;;;;;;;2.73;2.00;;;7.50;99.90;;;;;;5012947;28;20195;-77
2023/04/30 00:48:00;;;;;;;4.03;2.23;;;7.40;99.90;;;;;;5013353;28;20200;-82
2023/04/30 00:50:27;;;;;;;7.83;2.83;;;7.30;99.90;;;;;;4996934;28;20204;-68
2023/04/30 00:52:52;;;;;;;5.37;2.63;;;7.30;99.90;;;;;;5009959;28;20219;-71
2023/04/30 00:55:18;;;;;;;8.33;2.07;;;7.30;99.90;;;;;;5001467;28;20199;-70
2023/04/30 00:57:45;;;;;;;4.77;2.67;;;7.30;99.90;;;;;;5006979;28;20227;-71
2023/04/30 01:00:12;;;;;;;4.97;2.10;;;7.30;99.90;;;;;;4994257;28;20188;-71
2023/04/30 01:02:38;;;;;;;7.23;2.57;;;7.30;99.90;;;;;;5005373;28;20203;-76
2023/04/30 01:05:05;;;;;;;4.80;2.00;;;7.30;99.90;;;;;;5005621;28;20215;-72
2023/04/30 01:07:31;;;;;;;10.47;3.67;;;7.30;99.90;;;;;;5009182;28;20294;-74
2023/04/30 01:09:57;;;;;;;6.93;3.40;;;7.20;99.90;;;;;;5008786;28;20310;-72
2023/04/30 01:12:35;;;;;;;10.47;2.73;;;7.20;99.90;;;;;;5005720;28;20687;-72
2023/04/30 01:15:18;;;;;;;8.60;2.80;;;7.20;99.90;;;;;;5015072;28;20221;-70
2023/04/30 01:17:54;;;;;;;6.10;2.70;;;7.20;99.90;;;;;;5005134;28;20211;-70
2023/04/30 01:20:20;;;;;;;5.13;3.63;;;7.20;99.90;;;;;;5007949;28;20277;-71
2023/04/30 01:22:57;;;;;;;5.73;2.67;;;7.10;99.90;;;;;;5006082;28;20311;-71
2023/04/30 01:26:02;;;;;;;4.13;2.80;;;7.10;99.90;;;;;;5007831;28;20621;-71
2023/04/30 01:28:28;;;;;;;8.03;3.10;;;7.00;99.90;;;;;;5010466;28;20274;-71
2023/04/30 01:30:54;;;;;;;4.37;3.33;;;7.00;99.90;;;;;;5016255;28;20299;-72
2023/04/30 01:33:19;;;;;;;5.87;2.80;;;7.00;99.90;;;;;;5017909;28;20307;-70
2023/04/30 01:36:04;;;;;;;5.77;2.50;;;7.00;99.90;;;;;;5018531;28;20728;-74
2023/04/30 01:39:03;;;;;;;5.63;3.00;;;7.00;99.90;;;;;;5017609;28;20611;-71
2023/04/30 01:41:37;;;;;;;5.47;2.20;;;6.90;99.90;;;;;;5018278;28;20195;-77
2023/04/30 01:44:18;;;;;;;5.60;2.40;;;6.90;99.90;;;;;;5017847;28;20738;-70
2023/04/30 01:46:54;;;;;;;5.87;2.47;;;7.00;99.90;;;;;;5013538;28;20752;-71
2023/04/30 01:49:50;;;;;;;7.87;2.60;;;7.00;99.90;;;;;;5015798;28;20212;-70
2023/04/30 01:52:43;;;;;;;7.40;2.30;;;7.00;99.90;;;;;;5017512;28;20448;-70
2023/04/30 01:55:17;;;;;;;10.03;2.97;;;7.00;99.90;;;;;;5020156;28;20306;-77
2023/04/30 01:57:58;;;;;;;5.57;2.50;;;6.90;99.90;;;;;;5015490;28;20218;-79
2023/04/30 02:00:29;;;;;;;4.10;2.23;;;6.90;99.90;;;;;;5022597;28;20211;-80
2023/04/30 02:02:55;;;;;;;6.00;2.37;;;6.80;99.90;;;;;;5019226;28;20207;-71
2023/04/30 02:05:20;;;;;;;6.00;2.27;;;6.80;99.90;;;;;;5017776;28;20257;-71
2023/04/30 02:07:48;;;;;;;8.33;3.00;;;6.70;99.90;;;;;;5014689;28;20235;-71
2023/04/30 02:10:15;;;;;;;4.10;2.50;;;6.70;99.90;;;;;;5006354;28;20200;-71
2023/04/30 02:12:40;;;;;;;6.07;2.07;;;6.70;99.90;;;;;;5008228;28;20211;-72
2023/04/30 02:15:07;;;;;;;4.90;2.50;;;6.70;99.90;;;;;;5017141;28;20207;-71
2023/04/30 02:17:32;;;;;;;8.43;3.53;;;6.60;99.90;;;;;;5009676;28;20203;-70
2023/04/30 02:19:59;;;;;;;6.97;2.73;;;6.60;99.90;;;;;;5004537;28;20227;-71
2023/04/30 02:22:24;;;;;;;9.17;2.50;;;6.60;99.90;;;;;;5006230;28;20232;-72
2023/04/30 02:24:50;;;;;;;8.47;4.30;;;6.50;99.90;;;;;;5004992;28;20235;-71
2023/04/30 02:27:16;;;;;;;7.70;3.60;;;6.50;99.90;;;;;;5007775;28;20216;-70
2023/04/30 02:29:42;;;;;;;3.70;2.30;;;6.40;99.90;;;;;;5009638;28;20292;-70
2023/04/30 02:32:08;;;;;;;5.17;2.70;;;6.40;99.90;;;;;;5008547;28;20757;-72
2023/04/30 02:34:33;;;;;;;6.90;2.63;;;6.40;99.90;;;;;;5012404;28;20212;-72
2023/04/30 02:36:58;;;;;;;7.93;3.33;;;6.40;99.90;;;;;;5022803;28;20226;-69
2023/04/30 02:39:24;;;;;;;6.17;2.93;;;6.30;99.90;;;;;;5015037;28;20200;-71
2023/04/30 02:41:49;;;;;;;8.27;2.90;;;6.30;99.90;;;;;;5016674;28;20192;-69
2023/04/30 02:44:15;;;;;;;2.80;2.30;;;6.20;99.90;;;;;;5016581;28;21074;-70
2023/04/30 02:46:41;;;;;;;5.47;2.50;;;6.20;99.90;;;;;;5017521;28;20406;-70
2023/04/30 02:49:06;;;;;;;5.77;3.03;;;6.10;99.90;;;;;;5011691;28;20203;-71
2023/04/30 02:51:32;;;;;;;6.37;2.70;;;6.10;99.90;;;;;;5012407;28;20362;-70
2023/04/30 02:53:57;;;;;;;5.93;2.50;;;6.00;99.90;;;;;;5018045;28;20223;-70
2023/04/30 02:56:23;;;;;;;6.33;2.97;;;6.00;99.90;;;;;;5016932;28;20261;-71
2023/04/30 02:58:48;;;;;;;4.67;2.77;;;6.00;99.90;;;;;;5017489;28;20191;-71
2023/04/30 03:01:14;;;;;;;6.40;2.80;;;5.90;99.90;;;;;;5016665;28;20199;-72
2023/04/30 03:03:40;;;;;;;3.30;2.77;;;5.90;99.90;;;;;;5011447;28;20212;-71
2023/04/30 03:06:05;;;;;;;6.10;4.43;;;5.80;99.90;;;;;;5016391;28;20303;-71
2023/04/30 03:08:31;;;;;;;3.73;2.60;;;5.80;99.90;;;;;;5017506;28;20273;-70
2023/04/30 03:10:56;;;;;;;4.53;3.33;;;5.80;99.90;;;;;;5017051;28;20597;-70
2023/04/30 03:13:24;;;;;;;4.23;2.77;;;5.80;99.90;;;;;;5016617;28;20215;-70
2023/04/30 03:15:57;;;;;;;7.30;3.37;;;5.70;99.90;;;;;;5015261;28;20541;-71
2023/04/30 03:18:23;;;;;;;6.03;3.20;;;5.60;99.90;;;;;;5016171;28;20226;-71
2023/04/30 03:20:48;;;;;;;6.90;3.20;;;5.60;99.90;;;;;;5015756;28;20685;-71
2023/04/30 03:23:14;;;;;;;7.93;3.90;;;5.60;99.90;;;;;;5015848;28;20523;-71
2023/04/30 03:25:39;;;;;;;5.57;2.50;;;5.60;99.90;;;;;;5013204;28;20234;-72
2023/04/30 03:28:05;;;;;;;9.83;3.83;;;5.60;99.90;;;;;;5007153;28;20947;-71
2023/04/30 03:30:30;;;;;;;5.43;3.33;;;5.50;99.90;;;;;;5015648;28;20202;-70
2023/04/30 03:32:56;;;;;;;4.73;3.23;;;5.50;99.90;;;;;;5017543;28;20262;-71
2023/04/30 03:35:21;;;;;;;4.37;3.00;;;5.50;99.90;;;;;;5012047;28;20588;-71
2023/04/30 03:37:47;;;;;;;3.30;2.90;;;5.40;99.90;;;;;;5015239;28;20211;-71
2023/04/30 03:40:13;;;;;;;6.13;2.93;;;5.40;99.90;;;;;;5017896;28;20268;-71
2023/04/30 03:42:38;;;;;;;5.97;2.67;;;5.40;99.90;;;;;;5010523;28;20195;-73
2023/04/30 03:45:04;;;;;;;4.07;2.60;;;5.40;99.90;;;;;;5014864;28;20242;-72
2023/04/30 03:47:29;;;;;;;6.83;3.23;;;5.40;99.90;;;;;;5015206;28;20195;-71
2023/04/30 03:49:55;;;;;;;10.47;4.33;;;5.40;99.90;;;;;;5012257;28;20279;-72
2023/04/30 03:52:21;;;;;;;4.30;3.50;;;5.40;99.90;;;;;;5006624;28;20183;-71
2023/04/30 03:54:46;;;;;;;6.60;3.23;;;5.30;99.90;;;;;;5013097;28;20270;-71
2023/04/30 03:57:12;;;;;;;4.17;3.13;;;5.30;99.90;;;;;;5015547;28;20192;-71
2023/04/30 03:59:39;;;;;;;5.17;2.83;;;5.20;99.90;;;;;;5017059;28;20246;-71
2023/04/30 04:02:05;;;;;;;4.67;3.77;;;5.20;99.90;;;;;;5012580;28;20204;-71
2023/04/30 04:04:31;;;;;;;6.90;3.80;;;5.20;99.90;;;;;;5014527;28;20204;-71
2023/04/30 04:06:56;;;;;;;11.03;3.27;;;5.20;99.90;;;;;;5017028;28;20332;-70
2023/04/30 04:09:22;;;;;;;6.73;3.50;;;5.20;99.90;;;;;;5010488;28;20217;-71
2023/04/30 04:11:47;;;;;;;5.77;3.10;;;5.20;99.90;;;;;;5014735;28;20273;-71
2023/04/30 04:14:13;;;;;;;8.50;3.37;;;5.10;99.90;;;;;;5017138;28;20746;-71
2023/04/30 04:16:38;;;;;;;4.77;3.10;;;5.10;99.90;;;;;;5013068;28;20242;-71
2023/04/30 04:19:05;;;;;;;6.93;3.17;;;5.20;99.90;;;;;;5014911;28;20207;-71
2023/04/30 04:21:30;;;;;;;2.83;2.53;;;5.10;99.90;;;;;;5013093;28;20231;-69
2023/04/30 04:23:56;;;;;;;8.27;3.87;;;5.00;99.90;;;;;;5016349;28;20211;-69
2023/04/30 04:26:24;;;;;;;8.30;3.20;;;5.00;99.90;;;;;;5015553;28;20745;-69
2023/04/30 04:28:53;;;;;;;6.63;3.97;;;5.00;99.90;;;;;;5016006;28;20300;-69
2023/04/30 04:31:19;;;;;;;6.30;3.33;;;5.10;99.90;;;;;;5013650;28;20577;-69
2023/04/30 04:33:44;;;;;;;5.07;3.10;;;5.10;99.90;;;;;;5015542;28;20270;-70
2023/04/30 04:36:10;;;;;;;3.90;3.20;;;5.10;99.90;;;;;;5015357;28;20199;-70
2023/04/30 04:38:36;;;;;;;4.67;3.27;;;5.10;99.90;;;;;;5017180;28;20665;-71
2023/04/30 04:41:01;;;;;;;5.60;2.90;;;5.10;99.90;;;;;;5009352;28;20381;-68
2023/04/30 04:43:27;;;;;;;5.43;3.23;;;5.10;99.90;;;;;;5016592;28;20754;-70
2023/04/30 04:45:52;;;;;;;4.77;3.03;;;5.10;99.90;;;;;;5021905;28;20203;-70
2023/04/30 04:48:18;;;;;;;8.00;3.23;;;5.10;99.90;;;;;;5019572;28;20286;-82
2023/04/30 04:50:44;;;;;;;10.57;4.00;;;5.10;99.90;;;;;;5019703;28;20200;-71
2023/04/30 04:53:09;;;;;;;7.90;3.43;;;5.10;99.90;;;;;;5008841;28;20306;-72
2023/04/30 04:55:35;;;;;;;3.50;3.20;;;5.10;99.90;;;;;;5013573;28;20204;-71
2023/04/30 04:58:00;;;;;;;5.63;3.07;;;5.20;99.90;;;;;;5007702;28;20200;-71
2023/04/30 05:00:26;;;;;;;6.73;3.23;;;5.20;99.90;;;;;;5009415;28;20207;-71
2023/04/30 05:02:52;;;;;;;5.97;3.03;;;5.20;99.90;;;;;;5011715;28;20945;-72
2023/04/30 05:05:17;;;;;;;8.97;3.97;;;5.30;99.90;;;;;;5007676;28;20195;-74
2023/04/30 05:07:43;;;;;;;8.63;3.83;;;5.20;99.90;;;;;;5009669;28;20604;-72
2023/04/30 05:10:08;;;;;;;6.00;2.77;;;5.20;99.90;;;;;;5009869;28;20559;-72
2023/04/30 05:12:34;;;;;;;7.83;3.83;;;5.20;99.90;;;;;;5008144;28;20211;-71
2023/04/30 05:15:00;;;;;;;7.37;3.03;;;5.20;99.90;;;;;;5017806;28;20219;-71
2023/04/30 05:17:25;;;;;;;5.87;3.40;;;5.30;99.90;;;;;;5008807;28;20277;-71
2023/04/30 05:19:51;;;;;;;4.93;3.10;;;5.30;99.90;;;;;;5012498;28;20223;-70
2023/04/30 05:22:17;;;;;;;8.47;4.13;;;5.30;99.90;;;;;;5007289;28;20199;-72
2023/04/30 05:24:42;;;;;;;3.20;2.90;;;5.30;99.90;;;;;;5008265;28;20208;-70
2023/04/30 05:27:08;;;;;;;6.80;3.80;;;5.40;99.90;;;;;;5013222;28;20226;-72
2023/04/30 05:29:33;;;;;;;4.40;3.07;;;5.50;99.90;;;;;;5005542;28;20204;-70
2023/04/30 05:32:00;;;;;;;6.87;3.60;;;5.60;99.90;;;;;;5011728;28;20227;-71
2023/04/30 05:34:26;;;;;;;3.17;2.67;;;5.60;99.90;;;;;;5007279;28;20322;-71
2023/04/30 05:36:52;;;;;;;6.83;3.10;;;5.70;99.90;;;;;;5006716;28;20286;-70
2023/04/30 05:39:17;;;;;;;4.60;3.57;;;5.60;99.90;;;;;;5007982;28;20287;-69
2023/04/30 05:41:43;;;;;;;11.47;3.93;;;5.70;99.90;;;;;;5007410;28;20227;-70
2023/04/30 05:44:08;;;;;;;7.77;3.30;;;5.80;99.90;;;;;;5007584;28;20230;-71
2023/04/30 05:46:34;;;;;;;13.70;4.43;;;5.80;99.90;;;;;;5007643;28;20208;-70
2023/04/30 05:49:00;;;;;;;4.67;3.07;;;5.90;99.90;;;;;;5007027;28;20208;-70
2023/04/30 05:51:26;;;;;;;8.40;3.70;;;6.00;99.90;;;;;;5014374;28;20699;-70
2023/04/30 05:53:52;;;;;;;7.80;3.93;;;6.00;99.90;;;;;;5011092;28;20289;-71
2023/04/30 05:56:20;;;;;;;4.77;3.00;;;6.00;99.90;;;;;;5010471;28;20295;-70
2023/04/30 05:58:46;;;;;;;5.00;3.43;;;6.00;99.90;;;;;;5007637;28;20764;-71
2023/04/30 06:01:11;;;;;;;8.10;3.20;;;6.00;99.90;;;;;;5005383;28;20191;-71
2023/04/30 06:03:37;;;;;;;10.83;3.43;;;6.00;99.90;;;;;;5006839;28;20347;-71
2023/04/30 06:06:03;;;;;;;9.03;3.00;;;6.10;99.90;;;;;;5008455;28;20211;-71
2023/04/30 06:08:29;;;;;;;5.77;3.23;;;6.30;99.90;;;;;;5012512;28;20203;-71
2023/04/30 06:10:57;;;;;;;5.67;3.23;;;6.30;99.90;;;;;;5016784;28;20214;-70
2023/04/30 06:13:23;;;;;;;4.63;3.00;;;6.30;99.90;;;;;;5016031;28;20665;-71
2023/04/30 06:15:48;;;;;;;7.00;3.53;;;6.40;99.90;;;;;;5015310;28;20209;-70
2023/04/30 06:18:14;;;;;;;6.43;3.20;;;6.30;99.90;;;;;;5016896;28;20610;-71
2023/04/30 06:20:40;;;;;;;7.17;3.33;;;6.40;99.90;;;;;;5016716;28;20242;-71
2023/04/30 06:23:05;;;;;;;6.07;3.17;;;6.30;99.90;;;;;;5016673;28;20199;-70
2023/04/30 06:25:31;;;;;;;6.53;3.50;;;6.50;99.90;;;;;;5014153;28;20577;-71
2023/04/30 06:27:56;;;;;;;10.57;3.63;;;6.60;99.90;;;;;;5016405;28;20662;-70
2023/04/30 06:30:22;;;;;;;7.60;3.90;;;6.70;99.90;;;;;;5016649;28;20231;-70
2023/04/30 06:32:47;;;;;;;6.37;3.23;;;6.80;99.90;;;;;;5016522;28;20222;-71
2023/04/30 06:35:13;;;;;;;5.27;3.37;;;6.80;99.90;;;;;;5016447;28;20192;-71
2023/04/30 06:37:39;;;;;;;11.37;3.67;;;6.90;99.90;;;;;;5016654;28;20199;-71
2023/04/30 06:40:05;;;;;;;9.83;5.13;;;7.10;99.90;;;;;;5016484;28;20195;-70
2023/04/30 06:42:34;;;;;;;5.77;3.67;;;7.10;99.90;;;;;;5015859;28;20282;-70
2023/04/30 06:45:01;;;;;;;6.40;3.20;;;7.20;99.90;;;;;;5016632;28;20212;-70
2023/04/30 06:47:27;;;;;;;5.90;3.40;;;7.20;99.90;;;;;;5017749;28;20287;-71
2023/04/30 06:49:52;;;;;;;8.40;3.30;;;7.20;99.90;;;;;;5015461;28;20357;-72
2023/04/30 06:52:18;;;;;;;14.23;4.13;;;7.20;99.90;;;;;;5016165;28;20451;-69
2023/04/30 06:54:43;;;;;;;8.73;3.63;;;7.30;99.90;;;;;;5015862;28;20261;-70
2023/04/30 06:57:09;;;;;;;7.73;3.67;;;7.30;99.90;;;;;;5016291;28;20553;-70
2023/04/30 06:59:34;;;;;;;9.03;3.10;;;7.20;99.90;;;;;;5016166;28;20202;-69
2023/04/30 07:02:00;;;;;;;8.83;4.10;;;7.30;99.90;;;;;;5015176;28;20534;-71
2023/04/30 07:04:26;;;;;;;10.30;3.53;;;7.40;99.90;;;;;;5015417;28;20534;-71
2023/04/30 07:06:52;;;;;;;10.37;3.53;;;7.40;99.90;;;;;;5015756;28;20207;-69
2023/04/30 07:09:17;;;;;;;9.80;3.40;;;7.60;99.90;;;;;;5015724;28;20611;-70
2023/04/30 07:11:44;;;;;;;6.83;3.73;;;7.80;99.90;;;;;;5015876;28;20242;-69
2023/04/30 07:14:09;;;;;;;6.00;3.27;;;7.60;99.90;;;;;;5016129;28;20225;-70
2023/04/30 07:16:35;;;;;;;8.97;3.30;;;7.70;99.90;;;;;;5014981;28;20199;-70
2023/04/30 07:19:00;;;;;;;6.00;2.73;;;7.90;99.90;;;;;;5015777;28;20206;-71
2023/04/30 07:21:26;;;;;;;4.83;2.93;;;7.80;99.90;;;;;;5015454;28;20693;-70
2023/04/30 07:23:52;;;;;;;6.50;3.57;;;7.80;99.90;;;;;;5017257;28;20280;-70
2023/04/30 07:26:17;;;;;;;7.07;3.77;;;7.80;99.90;;;;;;5016702;28;20202;-70
2023/04/30 07:28:45;;;;;;;5.60;4.00;;;7.80;99.90;;;;;;5008671;28;20227;-71
2023/04/30 07:31:11;;;;;;;6.13;4.60;;;7.80;99.90;;;;;;5014138;28;20203;-70
2023/04/30 07:33:37;;;;;;;7.07;3.43;;;7.70;99.90;;;;;;5015442;28;20645;-70
2023/04/30 07:36:02;;;;;;;10.30;3.53;;;7.80;99.90;;;;;;5015340;28;20195;-70
2023/04/30 07:38:28;;;;;;;5.30;3.03;;;7.90;99.90;;;;;;5015460;28;20200;-70
2023/04/30 07:40:53;;;;;;;5.27;3.00;;;8.00;99.90;;;;;;5015772;28;20200;-70
2023/04/30 07:43:19;;;;;;;6.43;3.43;;;8.20;99.90;;;;;;5015483;28;20218;-70
2023/04/30 07:45:45;;;;;;;8.60;3.20;;;8.40;99.90;;;;;;5013744;28;20203;-70
2023/04/30 07:48:10;;;;;;;3.83;2.80;;;8.50;99.90;;;;;;5015802;28;20295;-70
2023/04/30 07:50:36;;;;;;;3.40;3.10;;;8.40;99.90;;;;;;5015310;28;20196;-69
2023/04/30 07:53:02;;;;;;;10.90;3.67;;;8.10;99.90;;;;;;5018558;28;20194;-69
2023/04/30 07:55:27;;;;;;;4.13;3.10;;;8.30;99.90;;;;;;5011146;28;20229;-68
2023/04/30 07:57:53;;;;;;;5.53;3.07;;;8.30;99.90;;;;;;5013764;28;20569;-68
2023/04/30 08:00:18;;;;;;;5.70;3.23;;;8.30;99.90;;;;;;5015198;28;20244;-69
2023/04/30 08:02:44;;;;;;;7.50;3.53;;;8.40;99.90;;;;;;5014648;28;20199;-69
2023/04/30 08:05:10;;;;;;;6.60;4.27;;;8.50;99.90;;;;;;5015237;28;20211;-69
2023/04/30 08:07:36;;;;;;;7.30;3.07;;;8.50;99.90;;;;;;5013225;28;20199;-68
2023/04/30 08:10:01;;;;;;;6.47;3.30;;;8.40;99.90;;;;;;5015139;28;20211;-69
2023/04/30 08:12:26;;;;;;;6.27;3.70;;;8.50;99.90;;;;;;5015446;28;20207;-69
2023/04/30 08:15:06;;;;;;;9.10;3.77;;;8.40;99.90;;;;;;5019423;28;21000;-69
2023/04/30 08:17:32;;;;;;;8.50;2.93;;;8.70;99.90;;;;;;5016066;28;20429;-68
2023/04/30 08:19:57;;;;;;;6.67;3.10;;;8.80;99.90;;;;;;5016807;28;20310;-68
2023/04/30 08:22:23;;;;;;;6.13;2.90;;;9.00;99.90;;;;;;5009336;28;20540;-69
2023/04/30 08:24:49;;;;;;;4.97;3.17;;;9.00;99.90;;;;;;5009741;28;20203;-68
2023/04/30 08:27:15;;;;;;;8.50;3.10;;;8.80;99.90;;;;;;5014167;28;20222;-68
2023/04/30 08:29:40;;;;;;;5.80;3.03;;;9.00;99.90;;;;;;5007678;28;20626;-69
2023/04/30 08:32:06;;;;;;;6.23;3.57;;;9.20;99.90;;;;;;5012364;28;20211;-69
2023/04/30 08:34:32;;;;;;;6.47;2.13;;;9.50;99.70;;;;;;5008716;28;20233;-68
2023/04/30 08:36:57;;;;;;;6.27;3.37;;;9.10;98.10;;;;;;5009375;28;20694;-68
2023/04/30 08:39:23;;;;;;;5.00;2.77;;;9.10;97.70;;;;;;5008098;28;20201;-69
2023/04/30 08:41:56;;;;;;;6.87;3.30;;;9.30;96.00;;;;;;5009085;28;20200;-67
2023/04/30 08:44:22;;;;;;;6.23;2.30;;;9.40;97.50;;;;;;5008473;28;20278;-70
2023/04/30 08:46:52;;;;;;;4.23;2.37;;;9.40;96.30;;;;;;5008736;28;20228;-69
2023/04/30 08:49:18;;;;;;;5.70;2.73;;;9.30;94.80;;;;;;5008241;28;20326;-69
2023/04/30 08:51:45;;;;;;;6.47;2.37;;;9.20;94.70;;;;;;5011219;28;20237;-70
2023/04/30 08:54:12;;;;;;;2.40;2.20;;;9.30;94.90;;;;;;5012633;28;20212;-69
2023/04/30 08:56:38;;;;;;;3.97;2.00;;;9.20;93.90;;;;;;5008571;28;20558;-71
2023/04/30 08:59:03;;;;;;;5.13;2.33;;;9.30;95.20;;;;;;5006311;28;20207;-68
2023/04/30 09:01:29;;;;;;;3.67;1.97;;;9.60;94.20;;;;;;5008645;28;20201;-70
2023/04/30 09:03:55;;;;;;;7.47;2.17;;;9.90;94.20;;;;;;5006780;28;20205;-69
2023/04/30 09:06:21;;;;;;;7.57;2.37;;;9.80;93.80;;;;;;5012560;28;20655;-70
2023/04/30 09:08:48;;;;;;;3.97;1.90;;;9.80;94.50;;;;;;5005881;28;20675;-69
2023/04/30 09:11:28;;;;;;;4.93;2.23;;;9.70;93.60;;;;;;5009022;28;20210;-70
2023/04/30 09:13:57;;;;;;;3.73;2.37;;;9.70;93.90;;;;;;5008647;28;20303;-69
2023/04/30 09:16:24;;;;;;;5.40;2.30;;;9.60;93.30;;;;;;5006245;28;20203;-69
2023/04/30 09:18:50;;;;;;;5.10;1.87;;;10.00;93.50;;;;;;5017560;28;20195;-69
2023/04/30 09:21:15;;;;;;;5.00;2.30;;;10.10;91.20;;;;;;5016377;28;20310;-69
2023/04/30 09:23:56;;;;;;;2.97;2.13;;;10.20;91.00;;;;;;5018047;28;20207;-68
2023/04/30 09:26:27;;;;;;;4.13;1.90;;;9.90;91.10;;;;;;5013679;28;20214;-70
2023/04/30 09:28:57;;;;;;;2.83;1.83;;;9.80;90.90;;;;;;5013438;28;20211;-68
2023/04/30 09:31:23;;;;;;;6.57;2.07;;;9.90;90.30;;;;;;5016377;28;20267;-69
2023/04/30 09:33:49;;;;;;;2.20;1.70;;;10.30;88.60;;;;;;5017635;28;20224;-69
2023/04/30 09:36:16;;;;;;;5.50;1.97;;;10.60;86.10;;;;;;5016173;28;20211;-69
2023/04/30 09:38:41;;;;;;;2.60;1.47;;;10.50;81.60;;;;;;5017974;28;20208;-70
2023/04/30 09:41:25;;;;;;;4.23;2.03;;;10.40;81.70;;;;;;5018118;28;20199;-71
2023/04/30 09:43:50;;;;;;;4.23;2.30;;;10.60;82.20;;;;;;5017383;28;20555;-67
2023/04/30 09:46:18;;;;;;;2.90;1.97;;;10.70;81.00;;;;;;5013277;28;20406;-72
2023/04/30 09:48:44;;;;;;;3.27;2.27;;;10.70;82.50;;;;;;5017500;28;20241;-69
2023/04/30 09:51:10;;;;;;;3.60;2.23;;;10.90;79.80;;;;;;5017853;28;20235;-81
2023/04/30 09:53:41;;;;;;;3.63;1.80;;;10.80;78.70;;;;;;5018744;28;20263;-79
2023/04/30 09:56:07;;;;;;;3.73;1.90;;;10.80;75.80;;;;;;5019033;28;20203;-79
2023/04/30 09:58:40;;;;;;;2.87;1.70;;;10.90;76.10;;;;;;5009454;28;20194;-78
2023/04/30 10:01:10;;;;;;;2.87;2.13;;;10.90;76.90;;;;;;5016786;28;20223;-81
2023/04/30 10:03:39;;;;;;;5.67;2.20;;;11.10;80.60;;;;;;5009027;28;20275;-81
2023/04/30 10:06:05;;;;;;;2.63;1.93;;;11.20;78.90;;;;;;5015533;28;20633;-80
2023/04/30 10:08:40;;;;;;;4.90;2.80;;;11.40;78.60;;;;;;5013615;28;20475;-77
2023/04/30 10:11:07;;;;;;;2.30;1.60;;;11.30;78.20;;;;;;4998348;28;20641;-81
2023/04/30 10:13:54;;;;;;;3.83;1.97;;;11.50;80.40;;;;;;5012554;28;20442;-78
2023/04/30 10:16:46;;;;;;;4.10;2.00;;;11.60;81.60;;;;;;5014702;28;20202;-77
2023/04/30 10:19:23;;;;;;;2.60;2.10;;;11.60;80.40;;;;;;5016985;28;20257;-81
2023/04/30 10:21:49;;;;;;;8.13;2.23;;;11.70;82.90;;;;;;5000036;28;20281;-80
2023/04/30 10:24:18;;;;;;;4.60;1.80;;;11.10;82.60;;;;;;5017106;28;20247;-78
2023/04/30 10:26:45;;;;;;;3.07;2.00;;;11.00;83.40;;;;;;5017901;28;20252;-77
2023/04/30 10:29:13;;;;;;;3.87;2.47;;;11.30;83.90;;;;;;5018402;28;20210;-75
2023/04/30 10:31:40;;;;;;;3.50;2.50;;;11.50;84.00;;;;;;5018092;28;20799;-80
2023/04/30 10:34:30;;;;;;;3.83;2.33;;;11.60;79.70;;;;;;5016303;28;20229;-81
2023/04/30 10:37:02;;;;;;;3.53;2.53;;;11.90;81.10;;;;;;5017239;28;20199;-80
2023/04/30 10:39:28;;;;;;;5.43;2.83;;;11.70;82.60;;;;;;5016047;28;20661;-80
2023/04/30 10:42:02;;;;;;;5.47;2.13;;;11.70;80.90;;;;;;5016565;28;20202;-79
2023/04/30 10:44:35;;;;;;;3.47;2.47;;;11.80;83.60;;;;;;5022735;28;20303;-78
2023/04/30 10:47:02;;;;;;;6.07;2.23;;;12.00;80.20;;;;;;5013972;28;20216;-80
2023/04/30 10:49:28;;;;;;;4.20;2.30;;;12.00;84.30;;;;;;5015075;28;20211;-79
2023/04/30 10:51:57;;;;;;;6.37;2.87;;;11.80;82.70;;;;;;5017305;28;20210;-79
2023/04/30 10:54:28;;;;;;;5.80;2.47;;;11.80;81.50;;;;;;5016434;28;20212;-76
2023/04/30 10:57:16;;;;;;;6.07;2.23;;;11.70;82.60;;;;;;5012051;28;20211;-77
2023/04/30 11:00:13;;;;;;;4.90;2.80;;;12.00;81.00;;;;;;5014486;28;20678;-76
2023/04/30 11:02:42;;;;;;;6.30;2.10;;;12.30;79.00;;;;;;5014603;28;20347;-77
2023/04/30 11:05:12;;;;;;;3.87;2.77;;;12.20;78.80;;;;;;5016868;28;20270;-77
2023/04/30 11:07:48;;;;;;;2.50;2.30;;;12.20;81.70;;;;;;5018202;28;20213;-77
2023/04/30 11:10:15;;;;;;;9.47;2.10;;;12.20;78.10;;;;;;5018830;28;20223;-79
2023/04/30 11:12:47;;;;;;;4.17;2.27;;;12.30;80.30;;;;;;5017135;28;20304;-76
2023/04/30 11:15:18;;;;;;;6.30;2.00;;;12.70;77.60;;;;;;5015286;28;20218;-78
2023/04/30 11:17:45;;;;;;;3.60;2.53;;;13.00;75.00;;;;;;5015001;28;20201;-78
2023/04/30 11:20:22;;;;;;;6.57;2.50;;;13.30;76.80;;;;;;5015168;28;20224;-77
2023/04/30 11:23:06;;;;;;;4.70;2.30;;;13.10;77.80;;;;;;5017336;28;20692;-79
2023/04/30 11:25:42;;;;;;;4.73;2.20;;;13.30;76.40;;;;;;5014183;28;20250;-79
2023/04/30 11:28:16;;;;;;;3.77;1.93;;;13.80;77.50;;;;;;4996789;28;20693;-78
2023/04/30 11:30:53;;;;;;;3.27;1.87;;;13.80;73.30;;;;;;5013400;28;20295;-78
2023/04/30 11:33:20;;;;;;;5.43;2.47;;;13.50;72.90;;;;;;5020059;28;20578;-79
2023/04/30 11:35:50;;;;;;;6.10;2.90;;;13.60;73.20;;;;;;5013683;28;20206;-81
2023/04/30 11:38:17;;;;;;;3.73;2.70;;;13.90;71.90;;;;;;4987090;28;20200;-81
2023/04/30 11:40:43;;;;;;;4.70;2.10;;;14.20;71.80;;;;;;5005101;28;20195;-81
2023/04/30 11:43:20;;;;;;;4.90;3.03;;;14.40;75.40;;;;;;5011981;28;20207;-80
2023/04/30 11:45:57;;;;;;;6.17;2.83;;;14.50;72.90;;;;;;5006736;28;20210;-81
2023/04/30 11:48:23;;;;;;;2.70;2.50;;;14.50;71.20;;;;;;5011350;28;20697;-80
2023/04/30 11:50:48;;;;;;;2.30;2.07;;;14.50;67.40;;;;;;5012757;28;20223;-79
2023/04/30 11:53:14;;;;;;;6.03;2.80;;;14.40;70.20;;;;;;5016480;28;20197;-80
2023/04/30 11:55:40;;;;;;;4.47;2.50;;;14.30;70.60;;;;;;5013559;28;20223;-76
2023/04/30 11:58:09;;;;;;;2.73;2.10;;;14.00;69.00;;;;;;5012209;28;21087;-75
2023/04/30 12:00:35;;;;;;;3.47;2.60;;;14.60;67.40;;;;;;5020666;28;20264;-80
2023/04/30 12:03:02;;;;;;;2.53;2.33;;;14.60;68.40;;;;;;5015820;28;20295;-80
2023/04/30 12:05:27;;;;;;;6.43;2.70;;;14.40;69.20;;;;;;4996615;28;20234;-74
2023/04/30 12:08:03;;;;;;;3.30;2.57;;;14.10;71.50;;;;;;5019943;28;20202;-78
2023/04/30 12:10:30;;;;;;;5.57;2.43;;;14.70;71.50;;;;;;5015945;28;20195;-78
2023/04/30 12:12:56;;;;;;;4.50;2.33;;;14.80;70.50;;;;;;5017613;28;20210;-79
2023/04/30 12:15:25;;;;;;;9.13;2.50;;;15.00;66.70;;;;;;5015634;28;20195;-76
2023/04/30 12:17:55;;;;;;;5.07;2.43;;;14.70;65.80;;;;;;5016829;28;20623;-82
2023/04/30 12:20:21;;;;;;;4.30;3.23;;;15.20;63.30;;;;;;5016573;28;20208;-83
2023/04/30 12:22:47;;;;;;;3.83;2.90;;;15.20;64.30;;;;;;5015565;28;20214;-82
2023/04/30 12:25:16;;;;;;;2.90;2.43;;;15.20;65.10;;;;;;5017461;28;20912;-80
2023/04/30 12:27:46;;;;;;;6.33;2.67;;;16.10;63.30;;;;;;5019225;28;20322;-82
2023/04/30 12:30:12;;;;;;;3.33;2.40;;;16.20;62.10;;;;;;5031502;28;20199;-82
2023/04/30 12:32:40;;;;;;;6.40;2.67;;;15.50;59.20;;;;;;5018528;28;20204;-78
2023/04/30 12:35:07;;;;;;;6.43;2.00;;;15.30;63.00;;;;;;5001187;28;20200;-76
2023/04/30 12:37:32;;;;;;;2.73;2.37;;;15.70;59.90;;;;;;5014356;28;20195;-78
2023/04/30 12:39:59;;;;;;;4.00;2.40;;;16.60;58.20;;;;;;5016820;28;20660;-76
2023/04/30 12:42:24;;;;;;;1.83;1.70;;;15.40;59.00;;;;;;5017405;28;20222;-84
2023/04/30 12:44:50;;;;;;;5.13;2.27;;;15.40;58.70;;;;;;5013085;28;20837;-83
2023/04/30 12:47:15;;;;;;;3.47;2.23;;;16.00;57.90;;;;;;5017471;28;20244;-83
2023/04/30 12:49:44;;;;;;;5.47;2.20;;;16.10;56.50;;;;;;5018047;28;20213;-83
2023/04/30 12:52:11;;;;;;;3.00;1.90;;;16.20;54.60;;;;;;5014146;28;20227;-81
2023/04/30 12:54:38;;;;;;;4.57;1.70;;;16.60;55.50;;;;;;5016722;28;20313;-83
2023/04/30 12:57:07;;;;;;;2.17;1.90;;;17.50;52.90;;;;;;5017219;28;20232;-75